Gough Island, South Africa
Current Conditions -  °F | °C
As of 2:00 AM on Monday 22 Dec 2014 (Local Time) from FACT Reporting Station
Broken Clouds Broken Clouds  
Wind Chill: 18°   Ceiling: 4100
Heat Index: 18°   Visibility: 6mi
Dew Point: 15°   Wind: 3mph
Humidity: 83%   Direction: 210°SSW
Pressure: 30"   Gusts: NA
Location:  40.35°S, 9.88°W
Report Text: FACT 220000Z 21003KT 190V250 9999 BKN041 18/15 Q1016 NOSIG
Loading
Personal Weather Stations






























Interactive Weather Map New forecast layout! Learn more

10-Day Weather Forecast

Advertisements
Track Severe Weather on mobile